Du har inga inställningar för hoppväder.nu

Hoppväder.nu

Senast uppdaterat 06:14

UTC-tid

2021-01-17 kl. 05:14


Sol och måne

Solen går upp 8:22 och går ner 16:06 (beräknade cirkatider)
Nästa fullmåne blir om 11 dagar (2021-01-28)

METAR

ESMK (Everöd)
(24 minuter sedan)
ESMK 170450Z AUTO 00000KT 9999 -SN FEW027/// OVC041/// M04/M04 Q1018 RESG REFZUP=



ESMS (Malmö)
(24 minuter sedan)
ESMS 170450Z 02002KT 9999 BKN024 OVC038 M03/M04 Q1017=



ESMX (Växjö)
(24 minuter sedan)
ESMX 170450Z AUTO VRB03KT 9999 OVC029/// M03/M04 Q1018=



ESDF (Ronneby)
(24 minuter sedan)
ESDF 170450Z AUTO 02004KT 9999 OVC041/// M03/M04 Q1019=



EKRN (Rønne, Bornholm)
(24 minuter sedan)
EKRN 170450Z AUTO 14008KT 9999 -SHSN BKN016/// OVC046/// 00/M02 Q1018=



TAF

ESMK (Everöd)
ESMK



ESMS (Malmö)
(367 minuter sedan)
ESMS 162307Z 1700/1724 04003KT 9999 SCT008 BKN015 TEMPO 1700/1707 BKN008 TEMPO 1707/1724 1500 SHSN VV008=



ESMX (Växjö)
ESMX



ESDF (Ronneby)
ESDF



EKRN (Rønne, Bornholm)
EKRN





Kodnycklar till TAF och METAR






LHP

(Everöd är område se11e i Hela Område 1)

Översikt

ÄNDRAD ÖVERSIKT FÖR OMRÅDE se1 UTFÄRDAD 170508

GÄLLANDE DEN 17 JANUARI 2021 MELLAN 05 OCH 13 UTC


Väderöversikt
Se väderöversikt för område se2 + se3

Sikt under 5 kilometer eller molnbas under 1000 fot
05-13UTC: I hela området


Måttlig eller svår isbildning
05-13UTC: I hela området


Måttlig eller svår turbulens
Väntas inte förekomma under perioden

Hela Område 1

ÄNDRAD PROGNOS FÖR OMRÅDE se11 UTFÄRDAD 170508
GÄLLANDE DEN 17 JANUARI 2021 MELLAN 05 OCH 13 UTC

Måttlig eller svår turbulens
05-13UTC: I hela området: Väntas inte förekomma under perioden

Måttlig eller svår isbildning
05-13UTC: I hela området: måttlig isbildning 500ft - FL060

Sikt/Väder/Moln
05-07UTC: Område se11a,se11e,se11d: Sikt >8km, lokalt 3km - 5km i snöfall. Molnbas 2000ft - 4000ft, lokalt 500ft - 1000ft.

05-09UTC: Område se11c: Sikt 1.5km - >8km i snöbyar, snöfall. Molnbas 500ft - 4000ft.
Område se11b: Sikt >8km, lokalt 3km - 5km i snöfall. Molnbas 2000ft - 4000ft, lokalt 500ft - 1000ft.

05-11UTC: Område se11h,se11f: Sikt 1.5km - >8km i snöbyar, snöfall. Molnbas 500ft - 4000ft.

05-13UTC: Område se11g: Sikt >8km, lokalt 1.5km - 3km i snöbyar. Molnbas 2000ft - 4000ft, lokalt 500ft - 1000ft.
Område se11i: Sikt 1.5km - >8km i snöbyar. Molnbas 500ft - 4000ft.

07-09UTC: Område se11e,se11d: Sikt 3km - >8km i snöfall. Molnbas 500ft - 4000ft.

07-11UTC: Område se11a: Sikt 3km - >8km i snöfall. Molnbas 500ft - 4000ft.

09-13UTC: Område se11c: Sikt >8km, lokalt 1.5km - 3km i snöbyar. Molnbas 2000ft - 4000ft, lokalt 500ft - 1000ft.
Område se11e,se11d,se11b: Sikt 1.5km - >8km i snöbyar, snöfall. Molnbas 500ft - 4000ft.

11-13UTC: Område se11f: Sikt >8km, lokalt 1.5km - 3km i snöbyar. Molnbas 2000ft - 4000ft, lokalt 500ft - 1000ft.
Område se11h: Sikt 1.5km - >8km i snöbyar. Molnbas 500ft - 4000ft.
Område se11a: Sikt 3km - >8km i snöfall. Molnbas 1000ft - 4000ft.


Molnöversida
05-07UTC: Område se11c: Molnöversida FL060.

05-09UTC: Område se11e,se11d,se11b: Molnöversida FL060.

05-13UTC: Område se11a: Molnöversida FL060.
Område se11i,se11h,se11g,se11f: Molnöversida FL080.

07-13UTC: Område se11c: Molnöversida FL080.

09-13UTC: Område se11e,se11d,se11b: Molnöversida FL080.


CB/TCU Moln
05-09UTC: Område se11e,se11d,se11b: Väntas inte förekomma under perioden

05-13UTC: Område se11c,se11i,se11h,se11g,se11f: TCU
Område se11a: Väntas inte förekomma under perioden

09-13UTC: Område se11e,se11d,se11b: TCU


Nollgradersisoterm
05-13UTC: Noll grader SFC - 1000ft.

Vind vid marken
05-07UTC: Område se11f: O/0-10 knop, byar upp till 14 knop.
Område se11d: O-SO/0-10 knop, byar upp till 13 knop.
Område se11i: SO-S/3-13 knop, byar upp till 17 knop.
Område se11b: SO/3-11 knop, byar upp till 14 knop.
Område se11c: O/2-8 knop.
Område se11g: SO/0-16 knop, byar upp till 20 knop.
Område se11h: O-SO/0-11 knop, byar upp till 15 knop.

05-09UTC: Område se11e: O/0-7 knop, byar upp till 11 knop.
Område se11a: SO/2-13 knop, byar upp till 16 knop.

07-09UTC: Område se11i: SO-S/3-14 knop, byar upp till 18 knop.
Område se11h: SO-S/0-13 knop, byar upp till 18 knop.
Område se11d: O-SO/0-12 knop, byar upp till 16 knop.
Område se11b: SO/3-13 knop, byar upp till 16 knop.
Område se11c: O/1-9 knop, byar upp till 12 knop.
Område se11f: O-SO/0-9 knop, byar upp till 14 knop.
Område se11g: S/0-18 knop, byar upp till 23 knop.

09-11UTC: Område se11g: S/2-16 knop, byar upp till 24 knop.
Område se11f: SO-S/0-12 knop, byar upp till 18 knop.
Område se11a: SO-S/2-13 knop, byar upp till 16 knop.
Område se11d: O-SO/1-11 knop, byar upp till 15 knop.
Område se11i: S/6-14 knop, byar upp till 18 knop.
Område se11h: S/0-13 knop, byar upp till 18 knop.
Område se11e: O/0-6 knop, byar upp till 12 knop.
Område se11c: SO/2-14 knop, byar upp till 18 knop.
Område se11b: SO-S/3-11 knop, byar upp till 16 knop.

11-13UTC: Område se11h: S-SV/0-13 knop, byar upp till 17 knop.
Område se11f: S/1-12 knop, byar upp till 17 knop.
Område se11i: S/5-12 knop, byar upp till 18 knop.
Område se11d: SO/2-9 knop, byar upp till 14 knop.
Område se11a: SO-S/2-12 knop, byar upp till 17 knop.
Område se11e: SO/0-7 knop, byar upp till 11 knop.
Område se11c: S-SV/1-15 knop, byar upp till 19 knop.
Område se11b: SO-S/3-10 knop, byar upp till 14 knop.
Område se11g: S/6-16 knop, byar upp till 21 knop.


Genomsnittlig vind och temperatur för området
2000ft:
05-07UTC: 150/9kt -4.
07-09UTC: 160/10kt -4.
09-11UTC: 170/10kt -5.
11-13UTC: 190/9kt -5.

FL50:
05-07UTC: 170/5kt -10.
07-09UTC: 190/5kt -10.
09-11UTC: 220/6kt -10.
11-13UTC: 250/7kt -10.

FL100:
05-07UTC: 60/3kt -14.
07-09UTC: 50/2kt -14.
09-11UTC: 20/2kt -14.
11-13UTC: 290/2kt -14.

Lägsta QNH
1016 hPa.

OBS! endast utbredd måttlig eller svår isbildning och turbulens prognostiseras i LLF.
Avsaknad av isbildning och turbulens i prognosen utesluter inte förekomst av lätt isbildning och turbulens.
För indikation på lätt isbildning, var vänlig kontrollera om prognosen för molntopp ligger högre än nollgradersisotermen.
Förekomst av TCU eller CB medför alltid en risk för måttlig eller svår isbildning och turbulens även om det inte framgår explicit av prognosen.







Spotting

Hur fungerar spotthjälpen och Vindkartan?

Markvind är ca 0-4 m/s med byar på 6 m/s.
Vind på 600 m ca 5 m/s.
Vind på 1500 m ca 3 m/s.
Vind på 3000 m ca 2 m/s.
KalleDavid flyger ca 42 m/s över marken på finalen.
Du driver ca 69 m bakåt i frifall. (93 m)
Lämplig spot är 5 sekunder eller 211 m innan gropen.
(-4s eller -169 m)
För små grupper eller ensamhoppare bör man vänta 4-5 sekunder mellan grupperna.
För större grupper bör man vänta 7-9 sekunder mellan grupperna.


Vindkartan

Senast uppdaterad 06:14




All data kommer från LFV.se